Ancho, New Mexico
Current Conditions -  °F | °C
As of 6:15 PM on Thursday 27 Nov 2014 (Local Time) from KSRR Reporting Station
Clear Clear  
Wind Chill: 40°   Ceiling: Unl
Heat Index: 45°   Visibility: 10mi
Dew Point: 19°   Wind: 8mph
Humidity: 37%   Direction: 260°W
Pressure: 30.39"   Gusts: NA
Location:  33.6269°N, 105.978°W
Report Text: KSRR 280115Z AUTO 26007KT 10SM CLR 07/M07 A3039 RMK AO2
Loading
Personal Weather Stations






























Interactive Weather Map New forecast layout! Learn more

10-Day Weather Forecast

Advertisements
Track Severe Weather on mobile